sensor_id;sensor_type;location;lat;lon;timestamp;P1;durP1;ratioP1;P2;durP2;ratioP2
69894;SDS011;57172;52.034;5.090;2024-03-02T00:01:23;6.38;;;1.90;;
69894;SDS011;57172;52.034;5.090;2024-03-02T00:03:50;5.53;;;2.20;;
69894;SDS011;57172;52.034;5.090;2024-03-02T00:06:21;4.13;;;1.85;;
69894;SDS011;57172;52.034;5.090;2024-03-02T00:08:48;2.17;;;1.23;;
69894;SDS011;57172;52.034;5.090;2024-03-02T00:11:15;2.33;;;1.00;;
69894;SDS011;57172;52.034;5.090;2024-03-02T00:13:42;1.48;;;1.00;;
69894;SDS011;57172;52.034;5.090;2024-03-02T00:16:09;2.47;;;1.20;;
69894;SDS011;57172;52.034;5.090;2024-03-02T00:18:37;3.20;;;0.90;;
69894;SDS011;57172;52.034;5.090;2024-03-02T00:21:05;1.23;;;1.00;;
69894;SDS011;57172;52.034;5.090;2024-03-02T00:23:35;1.67;;;1.20;;
69894;SDS011;57172;52.034;5.090;2024-03-02T00:26:03;1.77;;;0.82;;
69894;SDS011;57172;52.034;5.090;2024-03-02T00:28:31;1.10;;;0.95;;
69894;SDS011;57172;52.034;5.090;2024-03-02T00:33:38;2.65;;;1.00;;
69894;SDS011;57172;52.034;5.090;2024-03-02T00:36:10;1.20;;;1.00;;
69894;SDS011;57172;52.034;5.090;2024-03-02T00:38:48;1.10;;;0.80;;
69894;SDS011;57172;52.034;5.090;2024-03-02T00:46:27;1.20;;;0.82;;
69894;SDS011;57172;52.034;5.090;2024-03-02T00:48:58;1.30;;;1.00;;
69894;SDS011;57172;52.034;5.090;2024-03-02T00:51:27;2.17;;;1.00;;
69894;SDS011;57172;52.034;5.090;2024-03-02T00:53:57;1.20;;;1.00;;
69894;SDS011;57172;52.034;5.090;2024-03-02T00:56:25;1.33;;;0.90;;
69894;SDS011;57172;52.034;5.090;2024-03-02T00:58:53;1.75;;;1.10;;
69894;SDS011;57172;52.034;5.090;2024-03-02T01:01:20;1.30;;;1.00;;
69894;SDS011;57172;52.034;5.090;2024-03-02T01:03:47;1.40;;;1.00;;
69894;SDS011;57172;52.034;5.090;2024-03-02T01:06:16;1.45;;;1.00;;
69894;SDS011;57172;52.034;5.090;2024-03-02T01:08:43;1.38;;;1.10;;
69894;SDS011;57172;52.034;5.090;2024-03-02T01:11:10;1.30;;;1.10;;
69894;SDS011;57172;52.034;5.090;2024-03-02T01:13:37;2.13;;;1.10;;
69894;SDS011;57172;52.034;5.090;2024-03-02T01:16:04;1.60;;;0.98;;
69894;SDS011;57172;52.034;5.090;2024-03-02T01:18:31;1.35;;;1.02;;
69894;SDS011;57172;52.034;5.090;2024-03-02T01:20:58;1.08;;;0.90;;
69894;SDS011;57172;52.034;5.090;2024-03-02T01:23:25;1.58;;;1.08;;
69894;SDS011;57172;52.034;5.090;2024-03-02T01:25:52;2.30;;;1.00;;
69894;SDS011;57172;52.034;5.090;2024-03-02T01:28:19;2.05;;;1.00;;
69894;SDS011;57172;52.034;5.090;2024-03-02T01:30:47;2.08;;;1.30;;
69894;SDS011;57172;52.034;5.090;2024-03-02T01:33:15;2.00;;;1.30;;
69894;SDS011;57172;52.034;5.090;2024-03-02T01:35:46;2.38;;;1.20;;
69894;SDS011;57172;52.034;5.090;2024-03-02T01:38:13;2.00;;;0.90;;
69894;SDS011;57172;52.034;5.090;2024-03-02T01:40:40;2.10;;;1.00;;
69894;SDS011;57172;52.034;5.090;2024-03-02T01:43:08;1.45;;;1.10;;
69894;SDS011;57172;52.034;5.090;2024-03-02T01:45:35;1.30;;;1.00;;
69894;SDS011;57172;52.034;5.090;2024-03-02T01:48:04;1.33;;;0.95;;
69894;SDS011;57172;52.034;5.090;2024-03-02T01:50:32;1.53;;;1.10;;
69894;SDS011;57172;52.034;5.090;2024-03-02T01:52:59;1.65;;;1.10;;
69894;SDS011;57172;52.034;5.090;2024-03-02T01:55:26;1.30;;;1.00;;
69894;SDS011;57172;52.034;5.090;2024-03-02T01:57:56;1.40;;;1.00;;
69894;SDS011;57172;52.034;5.090;2024-03-02T02:00:24;1.65;;;1.10;;
69894;SDS011;57172;52.034;5.090;2024-03-02T02:02:52;1.47;;;1.17;;
69894;SDS011;57172;52.034;5.090;2024-03-02T02:05:20;2.85;;;1.20;;
69894;SDS011;57172;52.034;5.090;2024-03-02T02:07:47;2.58;;;1.20;;
69894;SDS011;57172;52.034;5.090;2024-03-02T02:10:15;2.20;;;1.10;;
69894;SDS011;57172;52.034;5.090;2024-03-02T02:12:42;2.15;;;1.23;;
69894;SDS011;57172;52.034;5.090;2024-03-02T02:15:25;1.77;;;1.00;;
69894;SDS011;57172;52.034;5.090;2024-03-02T02:17:57;1.48;;;0.95;;
69894;SDS011;57172;52.034;5.090;2024-03-02T02:20:25;2.35;;;1.30;;
69894;SDS011;57172;52.034;5.090;2024-03-02T02:22:58;1.90;;;1.13;;
69894;SDS011;57172;52.034;5.090;2024-03-02T02:25:27;2.08;;;1.30;;
69894;SDS011;57172;52.034;5.090;2024-03-02T02:27:55;1.53;;;1.10;;
69894;SDS011;57172;52.034;5.090;2024-03-02T02:30:27;2.47;;;1.23;;
69894;SDS011;57172;52.034;5.090;2024-03-02T02:32:55;2.58;;;1.30;;
69894;SDS011;57172;52.034;5.090;2024-03-02T02:35:22;1.88;;;1.27;;
69894;SDS011;57172;52.034;5.090;2024-03-02T02:37:53;1.58;;;1.20;;
69894;SDS011;57172;52.034;5.090;2024-03-02T02:40:24;2.07;;;1.30;;
69894;SDS011;57172;52.034;5.090;2024-03-02T02:42:53;1.65;;;1.25;;
69894;SDS011;57172;52.034;5.090;2024-03-02T02:45:22;2.25;;;1.40;;
69894;SDS011;57172;52.034;5.090;2024-03-02T02:47:49;1.70;;;1.20;;
69894;SDS011;57172;52.034;5.090;2024-03-02T02:50:16;2.00;;;1.30;;
69894;SDS011;57172;52.034;5.090;2024-03-02T02:52:43;2.30;;;1.40;;
69894;SDS011;57172;52.034;5.090;2024-03-02T02:55:11;3.47;;;1.10;;
69894;SDS011;57172;52.034;5.090;2024-03-02T02:57:39;2.20;;;1.13;;
69894;SDS011;57172;52.034;5.090;2024-03-02T03:00:10;3.00;;;1.10;;
69894;SDS011;57172;52.034;5.090;2024-03-02T03:02:43;1.85;;;1.15;;
69894;SDS011;57172;52.034;5.090;2024-03-02T03:05:12;1.27;;;1.07;;
69894;SDS011;57172;52.034;5.090;2024-03-02T03:07:41;1.67;;;1.08;;
69894;SDS011;57172;52.034;5.090;2024-03-02T03:10:10;1.80;;;1.10;;
69894;SDS011;57172;52.034;5.090;2024-03-02T03:12:37;1.80;;;1.02;;
69894;SDS011;57172;52.034;5.090;2024-03-02T03:15:04;2.42;;;1.20;;
69894;SDS011;57172;52.034;5.090;2024-03-02T03:17:33;2.33;;;1.10;;
69894;SDS011;57172;52.034;5.090;2024-03-02T03:20:01;3.08;;;1.20;;
69894;SDS011;57172;52.034;5.090;2024-03-02T03:22:30;1.25;;;1.10;;
69894;SDS011;57172;52.034;5.090;2024-03-02T03:25:01;2.38;;;1.00;;
69894;SDS011;57172;52.034;5.090;2024-03-02T03:27:29;1.52;;;1.10;;
69894;SDS011;57172;52.034;5.090;2024-03-02T03:29:56;2.47;;;1.20;;
69894;SDS011;57172;52.034;5.090;2024-03-02T03:32:23;1.10;;;1.00;;
69894;SDS011;57172;52.034;5.090;2024-03-02T03:34:51;1.75;;;1.15;;
69894;SDS011;57172;52.034;5.090;2024-03-02T03:37:18;2.35;;;1.10;;
69894;SDS011;57172;52.034;5.090;2024-03-02T03:39:45;2.05;;;1.20;;
69894;SDS011;57172;52.034;5.090;2024-03-02T03:42:12;1.63;;;1.07;;
69894;SDS011;57172;52.034;5.090;2024-03-02T03:44:38;2.13;;;1.00;;
69894;SDS011;57172;52.034;5.090;2024-03-02T03:47:06;1.50;;;1.00;;
69894;SDS011;57172;52.034;5.090;2024-03-02T03:49:33;1.85;;;1.10;;
69894;SDS011;57172;52.034;5.090;2024-03-02T03:52:00;1.60;;;1.20;;
69894;SDS011;57172;52.034;5.090;2024-03-02T03:54:27;1.87;;;1.20;;
69894;SDS011;57172;52.034;5.090;2024-03-02T03:56:55;1.85;;;1.05;;
69894;SDS011;57172;52.034;5.090;2024-03-02T03:59:22;2.03;;;1.15;;
69894;SDS011;57172;52.034;5.090;2024-03-02T04:01:50;2.25;;;1.23;;
69894;SDS011;57172;52.034;5.090;2024-03-02T04:04:17;3.85;;;1.10;;
69894;SDS011;57172;52.034;5.090;2024-03-02T04:06:43;1.40;;;1.10;;
69894;SDS011;57172;52.034;5.090;2024-03-02T04:09:10;1.60;;;1.10;;
69894;SDS011;57172;52.034;5.090;2024-03-02T04:11:37;1.67;;;1.20;;
69894;SDS011;57172;52.034;5.090;2024-03-02T04:14:04;2.13;;;1.38;;
69894;SDS011;57172;52.034;5.090;2024-03-02T04:16:32;3.17;;;1.15;;
69894;SDS011;57172;52.034;5.090;2024-03-02T04:18:59;1.80;;;1.20;;
69894;SDS011;57172;52.034;5.090;2024-03-02T04:21:26;2.47;;;1.10;;
69894;SDS011;57172;52.034;5.090;2024-03-02T04:23:53;2.83;;;1.27;;
69894;SDS011;57172;52.034;5.090;2024-03-02T04:26:24;1.20;;;1.00;;
69894;SDS011;57172;52.034;5.090;2024-03-02T04:28:52;2.65;;;1.08;;
69894;SDS011;57172;52.034;5.090;2024-03-02T04:31:19;2.70;;;1.20;;
69894;SDS011;57172;52.034;5.090;2024-03-02T04:33:46;2.47;;;1.17;;
69894;SDS011;57172;52.034;5.090;2024-03-02T04:36:13;1.70;;;1.00;;
69894;SDS011;57172;52.034;5.090;2024-03-02T04:38:40;3.05;;;1.20;;
69894;SDS011;57172;52.034;5.090;2024-03-02T04:41:07;1.50;;;1.10;;
69894;SDS011;57172;52.034;5.090;2024-03-02T04:46:01;4.03;;;1.30;;
69894;SDS011;57172;52.034;5.090;2024-03-02T04:48:28;2.58;;;1.30;;
69894;SDS011;57172;52.034;5.090;2024-03-02T04:50:56;2.45;;;1.00;;
69894;SDS011;57172;52.034;5.090;2024-03-02T04:53:23;2.25;;;1.20;;
69894;SDS011;57172;52.034;5.090;2024-03-02T04:55:50;2.63;;;1.20;;
69894;SDS011;57172;52.034;5.090;2024-03-02T04:58:35;3.22;;;1.20;;
69894;SDS011;57172;52.034;5.090;2024-03-02T05:01:02;3.22;;;1.20;;
69894;SDS011;57172;52.034;5.090;2024-03-02T05:03:29;1.88;;;1.05;;
69894;SDS011;57172;52.034;5.090;2024-03-02T05:05:56;1.67;;;1.15;;
69894;SDS011;57172;52.034;5.090;2024-03-02T05:08:23;3.10;;;1.30;;
69894;SDS011;57172;52.034;5.090;2024-03-02T05:10:50;2.53;;;1.20;;
69894;SDS011;57172;52.034;5.090;2024-03-02T05:13:17;2.70;;;1.30;;
69894;SDS011;57172;52.034;5.090;2024-03-02T05:15:44;2.25;;;1.17;;
69894;SDS011;57172;52.034;5.090;2024-03-02T05:18:12;2.45;;;1.40;;
69894;SDS011;57172;52.034;5.090;2024-03-02T05:25:55;2.05;;;1.30;;
69894;SDS011;57172;52.034;5.090;2024-03-02T05:28:22;1.77;;;1.20;;
69894;SDS011;57172;52.034;5.090;2024-03-02T05:30:49;3.75;;;1.08;;
69894;SDS011;57172;52.034;5.090;2024-03-02T05:33:16;2.80;;;0.90;;
69894;SDS011;57172;52.034;5.090;2024-03-02T05:35:43;1.58;;;0.98;;
69894;SDS011;57172;52.034;5.090;2024-03-02T05:38:10;2.47;;;1.02;;
69894;SDS011;57172;52.034;5.090;2024-03-02T05:40:37;2.42;;;0.90;;
69894;SDS011;57172;52.034;5.090;2024-03-02T05:43:06;2.50;;;1.00;;
69894;SDS011;57172;52.034;5.090;2024-03-02T05:45:34;2.50;;;1.10;;
69894;SDS011;57172;52.034;5.090;2024-03-02T05:48:00;1.88;;;0.98;;
69894;SDS011;57172;52.034;5.090;2024-03-02T05:50:27;1.85;;;0.98;;
69894;SDS011;57172;52.034;5.090;2024-03-02T05:52:54;2.20;;;0.90;;
69894;SDS011;57172;52.034;5.090;2024-03-02T05:55:22;1.20;;;0.80;;
69894;SDS011;57172;52.034;5.090;2024-03-02T06:00:32;2.20;;;1.00;;
69894;SDS011;57172;52.034;5.090;2024-03-02T06:02:59;2.00;;;1.00;;
69894;SDS011;57172;52.034;5.090;2024-03-02T06:05:26;2.83;;;0.80;;
69894;SDS011;57172;52.034;5.090;2024-03-02T06:07:53;3.10;;;1.00;;
69894;SDS011;57172;52.034;5.090;2024-03-02T06:10:20;1.70;;;1.00;;
69894;SDS011;57172;52.034;5.090;2024-03-02T06:12:47;1.92;;;0.90;;
69894;SDS011;57172;52.034;5.090;2024-03-02T06:15:14;2.78;;;0.98;;
69894;SDS011;57172;52.034;5.090;2024-03-02T06:17:41;1.50;;;0.90;;
69894;SDS011;57172;52.034;5.090;2024-03-02T06:20:07;1.88;;;0.90;;
69894;SDS011;57172;52.034;5.090;2024-03-02T06:22:35;1.52;;;1.00;;
69894;SDS011;57172;52.034;5.090;2024-03-02T06:25:02;1.20;;;1.00;;
69894;SDS011;57172;52.034;5.090;2024-03-02T06:27:30;3.72;;;1.20;;
69894;SDS011;57172;52.034;5.090;2024-03-02T06:29:57;1.60;;;1.00;;
69894;SDS011;57172;52.034;5.090;2024-03-02T06:32:23;1.73;;;1.10;;
69894;SDS011;57172;52.034;5.090;2024-03-02T06:34:51;2.67;;;1.15;;
69894;SDS011;57172;52.034;5.090;2024-03-02T06:37:18;2.75;;;1.30;;
69894;SDS011;57172;52.034;5.090;2024-03-02T06:39:45;2.20;;;1.17;;
69894;SDS011;57172;52.034;5.090;2024-03-02T06:42:12;4.60;;;1.20;;
69894;SDS011;57172;52.034;5.090;2024-03-02T06:44:39;1.98;;;1.10;;
69894;SDS011;57172;52.034;5.090;2024-03-02T06:47:05;2.33;;;1.35;;
69894;SDS011;57172;52.034;5.090;2024-03-02T06:49:32;2.33;;;1.20;;
69894;SDS011;57172;52.034;5.090;2024-03-02T06:52:00;2.85;;;1.20;;
69894;SDS011;57172;52.034;5.090;2024-03-02T06:54:27;2.23;;;1.20;;
69894;SDS011;57172;52.034;5.090;2024-03-02T06:56:54;5.13;;;1.25;;
69894;SDS011;57172;52.034;5.090;2024-03-02T06:59:21;1.95;;;1.00;;
69894;SDS011;57172;52.034;5.090;2024-03-02T07:01:48;4.35;;;1.50;;
69894;SDS011;57172;52.034;5.090;2024-03-02T07:04:15;3.47;;;1.30;;
69894;SDS011;57172;52.034;5.090;2024-03-02T07:06:42;2.03;;;1.17;;
69894;SDS011;57172;52.034;5.090;2024-03-02T07:09:09;3.08;;;1.38;;
69894;SDS011;57172;52.034;5.090;2024-03-02T07:11:37;2.10;;;1.15;;
69894;SDS011;57172;52.034;5.090;2024-03-02T07:14:23;4.03;;;1.23;;
69894;SDS011;57172;52.034;5.090;2024-03-02T07:17:13;3.17;;;1.20;;
69894;SDS011;57172;52.034;5.090;2024-03-02T07:19:40;3.67;;;1.10;;
69894;SDS011;57172;52.034;5.090;2024-03-02T07:22:07;6.03;;;1.10;;
69894;SDS011;57172;52.034;5.090;2024-03-02T07:24:43;3.15;;;1.13;;
69894;SDS011;57172;52.034;5.090;2024-03-02T07:27:12;2.60;;;1.02;;
69894;SDS011;57172;52.034;5.090;2024-03-02T07:29:39;1.40;;;1.00;;
69894;SDS011;57172;52.034;5.090;2024-03-02T07:32:07;2.30;;;0.83;;
69894;SDS011;57172;52.034;5.090;2024-03-02T07:34:34;2.00;;;0.90;;
69894;SDS011;57172;52.034;5.090;2024-03-02T07:37:01;2.80;;;1.10;;
69894;SDS011;57172;52.034;5.090;2024-03-02T07:39:29;3.30;;;1.17;;
69894;SDS011;57172;52.034;5.090;2024-03-02T07:41:56;3.90;;;1.00;;
69894;SDS011;57172;52.034;5.090;2024-03-02T07:44:23;2.63;;;1.20;;
69894;SDS011;57172;52.034;5.090;2024-03-02T07:46:50;2.60;;;1.10;;
69894;SDS011;57172;52.034;5.090;2024-03-02T07:49:18;2.45;;;1.00;;
69894;SDS011;57172;52.034;5.090;2024-03-02T07:51:45;4.30;;;1.20;;
69894;SDS011;57172;52.034;5.090;2024-03-02T07:54:12;3.03;;;1.17;;
69894;SDS011;57172;52.034;5.090;2024-03-02T07:56:39;3.27;;;1.10;;
69894;SDS011;57172;52.034;5.090;2024-03-02T07:59:06;1.85;;;0.90;;
69894;SDS011;57172;52.034;5.090;2024-03-02T08:01:33;3.22;;;1.02;;
69894;SDS011;57172;52.034;5.090;2024-03-02T08:04:01;4.32;;;1.10;;
69894;SDS011;57172;52.034;5.090;2024-03-02T08:06:30;2.50;;;1.00;;
69894;SDS011;57172;52.034;5.090;2024-03-02T08:08:57;3.10;;;1.10;;
69894;SDS011;57172;52.034;5.090;2024-03-02T08:11:25;3.72;;;1.10;;
69894;SDS011;57172;52.034;5.090;2024-03-02T08:13:53;2.03;;;1.05;;
69894;SDS011;57172;52.034;5.090;2024-03-02T08:16:23;3.33;;;1.00;;
69894;SDS011;57172;52.034;5.090;2024-03-02T08:18:50;2.83;;;1.00;;
69894;SDS011;57172;52.034;5.090;2024-03-02T08:21:18;2.67;;;1.00;;
69894;SDS011;57172;52.034;5.090;2024-03-02T08:23:45;2.88;;;1.10;;
69894;SDS011;57172;52.034;5.090;2024-03-02T08:26:12;2.60;;;1.10;;
69894;SDS011;57172;52.034;5.090;2024-03-02T08:28:39;2.63;;;1.10;;
69894;SDS011;57172;52.034;5.090;2024-03-02T08:31:09;1.65;;;1.10;;
69894;SDS011;57172;52.034;5.090;2024-03-02T08:33:36;3.10;;;0.90;;
69894;SDS011;57172;52.034;5.090;2024-03-02T08:36:04;3.80;;;1.23;;
69894;SDS011;57172;52.034;5.090;2024-03-02T08:38:32;2.33;;;1.27;;
69894;SDS011;57172;52.034;5.090;2024-03-02T08:40:59;2.67;;;1.00;;
69894;SDS011;57172;52.034;5.090;2024-03-02T08:43:26;3.17;;;1.20;;
69894;SDS011;57172;52.034;5.090;2024-03-02T08:45:53;2.93;;;1.13;;
69894;SDS011;57172;52.034;5.090;2024-03-02T08:51:12;3.83;;;1.10;;
69894;SDS011;57172;52.034;5.090;2024-03-02T08:53:38;3.00;;;1.00;;
69894;SDS011;57172;52.034;5.090;2024-03-02T08:56:06;1.35;;;0.90;;
69894;SDS011;57172;52.034;5.090;2024-03-02T08:58:34;3.43;;;0.90;;
69894;SDS011;57172;52.034;5.090;2024-03-02T09:01:01;5.32;;;1.20;;
69894;SDS011;57172;52.034;5.090;2024-03-02T09:03:28;2.38;;;1.10;;
69894;SDS011;57172;52.034;5.090;2024-03-02T09:05:55;2.95;;;1.20;;
69894;SDS011;57172;52.034;5.090;2024-03-02T09:08:22;3.88;;;1.20;;
69894;SDS011;57172;52.034;5.090;2024-03-02T09:10:49;3.03;;;1.10;;
69894;SDS011;57172;52.034;5.090;2024-03-02T09:13:16;2.85;;;1.10;;
69894;SDS011;57172;52.034;5.090;2024-03-02T09:15:43;3.42;;;1.20;;
69894;SDS011;57172;52.034;5.090;2024-03-02T09:18:11;3.35;;;1.38;;
69894;SDS011;57172;52.034;5.090;2024-03-02T09:20:39;4.55;;;1.30;;
69894;SDS011;57172;52.034;5.090;2024-03-02T09:23:05;3.07;;;1.00;;
69894;SDS011;57172;52.034;5.090;2024-03-02T09:25:32;4.07;;;1.30;;
69894;SDS011;57172;52.034;5.090;2024-03-02T09:27:59;2.60;;;1.15;;
69894;SDS011;57172;52.034;5.090;2024-03-02T09:30:26;2.83;;;1.10;;
69894;SDS011;57172;52.034;5.090;2024-03-02T09:32:53;2.80;;;1.35;;
69894;SDS011;57172;52.034;5.090;2024-03-02T09:35:40;3.10;;;1.10;;
69894;SDS011;57172;52.034;5.090;2024-03-02T09:38:07;4.45;;;1.40;;
69894;SDS011;57172;52.034;5.090;2024-03-02T09:40:34;4.28;;;1.00;;
69894;SDS011;57172;52.034;5.090;2024-03-02T09:43:01;2.65;;;1.10;;
69894;SDS011;57172;52.034;5.090;2024-03-02T09:45:29;4.15;;;1.48;;
69894;SDS011;57172;52.034;5.090;2024-03-02T09:47:56;4.27;;;1.50;;
69894;SDS011;57172;52.034;5.090;2024-03-02T09:50:23;3.42;;;1.50;;
69894;SDS011;57172;52.034;5.090;2024-03-02T09:52:50;3.13;;;1.20;;
69894;SDS011;57172;52.034;5.090;2024-03-02T09:55:18;3.50;;;1.20;;
69894;SDS011;57172;52.034;5.090;2024-03-02T09:57:46;4.00;;;1.23;;
69894;SDS011;57172;52.034;5.090;2024-03-02T10:00:15;4.63;;;1.33;;
69894;SDS011;57172;52.034;5.090;2024-03-02T10:02:42;3.28;;;1.17;;
69894;SDS011;57172;52.034;5.090;2024-03-02T10:05:10;3.83;;;1.40;;
69894;SDS011;57172;52.034;5.090;2024-03-02T10:07:38;7.15;;;1.58;;
69894;SDS011;57172;52.034;5.090;2024-03-02T10:10:15;5.97;;;1.58;;
69894;SDS011;57172;52.034;5.090;2024-03-02T10:12:42;2.17;;;1.20;;
69894;SDS011;57172;52.034;5.090;2024-03-02T10:15:09;5.10;;;1.60;;
69894;SDS011;57172;52.034;5.090;2024-03-02T10:17:36;3.28;;;1.30;;
69894;SDS011;57172;52.034;5.090;2024-03-02T10:20:22;5.70;;;1.40;;
69894;SDS011;57172;52.034;5.090;2024-03-02T10:22:55;5.03;;;1.52;;
69894;SDS011;57172;52.034;5.090;2024-03-02T10:25:35;3.93;;;1.23;;
69894;SDS011;57172;52.034;5.090;2024-03-02T10:28:16;5.22;;;1.10;;
69894;SDS011;57172;52.034;5.090;2024-03-02T10:30:47;3.28;;;1.35;;
69894;SDS011;57172;52.034;5.090;2024-03-02T10:33:17;4.63;;;1.50;;
69894;SDS011;57172;52.034;5.090;2024-03-02T10:35:59;2.95;;;1.30;;
69894;SDS011;57172;52.034;5.090;2024-03-02T10:38:27;3.40;;;1.20;;
69894;SDS011;57172;52.034;5.090;2024-03-02T10:40:54;4.28;;;1.38;;
69894;SDS011;57172;52.034;5.090;2024-03-02T10:43:22;3.72;;;1.33;;
69894;SDS011;57172;52.034;5.090;2024-03-02T10:45:49;3.47;;;1.45;;
69894;SDS011;57172;52.034;5.090;2024-03-02T10:48:22;3.45;;;1.40;;
69894;SDS011;57172;52.034;5.090;2024-03-02T10:50:52;5.60;;;1.50;;
69894;SDS011;57172;52.034;5.090;2024-03-02T10:53:19;4.75;;;1.40;;
69894;SDS011;57172;52.034;5.090;2024-03-02T10:55:46;6.55;;;1.40;;
69894;SDS011;57172;52.034;5.090;2024-03-02T10:58:17;5.88;;;1.40;;
69894;SDS011;57172;52.034;5.090;2024-03-02T11:00:45;3.50;;;1.55;;
69894;SDS011;57172;52.034;5.090;2024-03-02T11:03:12;2.73;;;1.30;;
69894;SDS011;57172;52.034;5.090;2024-03-02T11:05:42;4.72;;;1.50;;
69894;SDS011;57172;52.034;5.090;2024-03-02T11:08:16;4.68;;;1.60;;
69894;SDS011;57172;52.034;5.090;2024-03-02T11:10:51;4.05;;;1.50;;
69894;SDS011;57172;52.034;5.090;2024-03-02T11:18:48;4.55;;;1.40;;
69894;SDS011;57172;52.034;5.090;2024-03-02T11:21:36;4.30;;;1.40;;
69894;SDS011;57172;52.034;5.090;2024-03-02T11:24:28;2.70;;;1.30;;
69894;SDS011;57172;52.034;5.090;2024-03-02T11:26:51;3.95;;;1.50;;
69894;SDS011;57172;52.034;5.090;2024-03-02T11:32:16;2.83;;;1.38;;
69894;SDS011;57172;52.034;5.090;2024-03-02T11:34:48;3.75;;;1.50;;
69894;SDS011;57172;52.034;5.090;2024-03-02T11:37:17;3.80;;;1.52;;
69894;SDS011;57172;52.034;5.090;2024-03-02T11:39:45;4.15;;;1.40;;
69894;SDS011;57172;52.034;5.090;2024-03-02T11:42:13;4.27;;;1.60;;
69894;SDS011;57172;52.034;5.090;2024-03-02T11:44:42;6.50;;;1.60;;
69894;SDS011;57172;52.034;5.090;2024-03-02T11:47:12;2.90;;;1.40;;
69894;SDS011;57172;52.034;5.090;2024-03-02T11:49:44;3.50;;;1.40;;
69894;SDS011;57172;52.034;5.090;2024-03-02T11:52:16;3.67;;;1.40;;
69894;SDS011;57172;52.034;5.090;2024-03-02T11:54:45;5.33;;;1.40;;
69894;SDS011;57172;52.034;5.090;2024-03-02T11:57:18;3.08;;;1.30;;
69894;SDS011;57172;52.034;5.090;2024-03-02T11:59:47;2.33;;;1.30;;
69894;SDS011;57172;52.034;5.090;2024-03-02T12:02:16;3.30;;;1.25;;
69894;SDS011;57172;52.034;5.090;2024-03-02T12:04:44;5.15;;;1.50;;
69894;SDS011;57172;52.034;5.090;2024-03-02T12:07:12;3.07;;;1.30;;
69894;SDS011;57172;52.034;5.090;2024-03-02T12:10:01;4.57;;;1.40;;
69894;SDS011;57172;52.034;5.090;2024-03-02T12:12:29;3.72;;;1.48;;
69894;SDS011;57172;52.034;5.090;2024-03-02T12:14:56;4.85;;;1.60;;
69894;SDS011;57172;52.034;5.090;2024-03-02T12:17:25;4.28;;;1.42;;
69894;SDS011;57172;52.034;5.090;2024-03-02T12:22:29;3.60;;;1.55;;
69894;SDS011;57172;52.034;5.090;2024-03-02T12:24:56;2.58;;;1.40;;
69894;SDS011;57172;52.034;5.090;2024-03-02T12:27:23;3.80;;;1.40;;
69894;SDS011;57172;52.034;5.090;2024-03-02T12:29:50;7.88;;;1.60;;
69894;SDS011;57172;52.034;5.090;2024-03-02T12:32:17;3.20;;;1.63;;
69894;SDS011;57172;52.034;5.090;2024-03-02T12:34:46;3.65;;;1.40;;
69894;SDS011;57172;52.034;5.090;2024-03-02T12:37:14;3.00;;;1.25;;
69894;SDS011;57172;52.034;5.090;2024-03-02T12:39:44;4.28;;;1.60;;
69894;SDS011;57172;52.034;5.090;2024-03-02T12:42:12;4.57;;;1.50;;
69894;SDS011;57172;52.034;5.090;2024-03-02T12:44:39;3.60;;;1.30;;
69894;SDS011;57172;52.034;5.090;2024-03-02T12:47:06;3.30;;;1.52;;
69894;SDS011;57172;52.034;5.090;2024-03-02T12:49:33;5.60;;;1.60;;
69894;SDS011;57172;52.034;5.090;2024-03-02T12:52:01;6.00;;;1.50;;
69894;SDS011;57172;52.034;5.090;2024-03-02T12:54:29;4.68;;;1.60;;
69894;SDS011;57172;52.034;5.090;2024-03-02T12:56:56;6.57;;;1.60;;
69894;SDS011;57172;52.034;5.090;2024-03-02T12:59:24;4.53;;;1.50;;
69894;SDS011;57172;52.034;5.090;2024-03-02T13:01:54;4.60;;;1.50;;
69894;SDS011;57172;52.034;5.090;2024-03-02T13:06:55;4.30;;;1.35;;
69894;SDS011;57172;52.034;5.090;2024-03-02T13:09:25;6.47;;;1.70;;
69894;SDS011;57172;52.034;5.090;2024-03-02T13:11:53;5.13;;;1.50;;
69894;SDS011;57172;52.034;5.090;2024-03-02T13:14:21;4.53;;;1.65;;
69894;SDS011;57172;52.034;5.090;2024-03-02T13:16:51;3.65;;;1.60;;
69894;SDS011;57172;52.034;5.090;2024-03-02T13:19:19;6.15;;;1.67;;
69894;SDS011;57172;52.034;5.090;2024-03-02T13:21:46;4.90;;;1.63;;
69894;SDS011;57172;52.034;5.090;2024-03-02T13:24:13;4.82;;;1.30;;
69894;SDS011;57172;52.034;5.090;2024-03-02T13:26:39;3.17;;;1.40;;
69894;SDS011;57172;52.034;5.090;2024-03-02T13:29:07;4.65;;;1.60;;
69894;SDS011;57172;52.034;5.090;2024-03-02T13:31:34;5.28;;;1.50;;
69894;SDS011;57172;52.034;5.090;2024-03-02T13:34:01;6.50;;;1.50;;
69894;SDS011;57172;52.034;5.090;2024-03-02T13:36:28;3.50;;;1.30;;
69894;SDS011;57172;52.034;5.090;2024-03-02T13:38:55;4.80;;;1.30;;
69894;SDS011;57172;52.034;5.090;2024-03-02T13:41:22;4.57;;;1.30;;
69894;SDS011;57172;52.034;5.090;2024-03-02T13:43:49;3.25;;;1.42;;
69894;SDS011;57172;52.034;5.090;2024-03-02T13:46:19;3.93;;;1.30;;
69894;SDS011;57172;52.034;5.090;2024-03-02T13:48:47;6.18;;;1.30;;
69894;SDS011;57172;52.034;5.090;2024-03-02T13:51:14;3.28;;;1.50;;
69894;SDS011;57172;52.034;5.090;2024-03-02T13:53:41;2.72;;;1.20;;
69894;SDS011;57172;52.034;5.090;2024-03-02T13:56:07;3.90;;;1.30;;
69894;SDS011;57172;52.034;5.090;2024-03-02T13:58:34;3.83;;;1.40;;
69894;SDS011;57172;52.034;5.090;2024-03-02T14:01:01;4.88;;;1.40;;
69894;SDS011;57172;52.034;5.090;2024-03-02T14:03:31;3.83;;;1.30;;
69894;SDS011;57172;52.034;5.090;2024-03-02T14:05:58;5.32;;;1.23;;
69894;SDS011;57172;52.034;5.090;2024-03-02T14:11:02;4.47;;;1.50;;
69894;SDS011;57172;52.034;5.090;2024-03-02T14:13:29;3.40;;;1.50;;
69894;SDS011;57172;52.034;5.090;2024-03-02T14:15:56;5.20;;;1.50;;
69894;SDS011;57172;52.034;5.090;2024-03-02T14:18:24;7.05;;;1.50;;
69894;SDS011;57172;52.034;5.090;2024-03-02T14:20:51;3.63;;;1.60;;
69894;SDS011;57172;52.034;5.090;2024-03-02T14:23:19;4.47;;;1.43;;
69894;SDS011;57172;52.034;5.090;2024-03-02T14:25:46;3.90;;;1.70;;
69894;SDS011;57172;52.034;5.090;2024-03-02T14:28:14;6.95;;;1.90;;
69894;SDS011;57172;52.034;5.090;2024-03-02T14:31:05;4.00;;;1.80;;
69894;SDS011;57172;52.034;5.090;2024-03-02T14:33:32;5.07;;;1.90;;
69894;SDS011;57172;52.034;5.090;2024-03-02T14:35:59;4.07;;;1.50;;
69894;SDS011;57172;52.034;5.090;2024-03-02T14:41:00;4.85;;;1.70;;
69894;SDS011;57172;52.034;5.090;2024-03-02T14:46:20;4.50;;;1.60;;
69894;SDS011;57172;52.034;5.090;2024-03-02T14:48:47;4.17;;;1.67;;
69894;SDS011;57172;52.034;5.090;2024-03-02T14:51:14;5.45;;;1.60;;
69894;SDS011;57172;52.034;5.090;2024-03-02T14:53:41;5.20;;;1.90;;
69894;SDS011;57172;52.034;5.090;2024-03-02T14:56:08;3.80;;;1.52;;
69894;SDS011;57172;52.034;5.090;2024-03-02T14:58:35;4.57;;;1.80;;
69894;SDS011;57172;52.034;5.090;2024-03-02T15:01:03;5.50;;;1.60;;
69894;SDS011;57172;52.034;5.090;2024-03-02T15:03:32;3.53;;;1.50;;
69894;SDS011;57172;52.034;5.090;2024-03-02T15:06:00;3.58;;;1.50;;
69894;SDS011;57172;52.034;5.090;2024-03-02T15:08:28;4.65;;;1.77;;
69894;SDS011;57172;52.034;5.090;2024-03-02T15:10:57;7.65;;;2.08;;
69894;SDS011;57172;52.034;5.090;2024-03-02T15:15:57;3.85;;;1.60;;
69894;SDS011;57172;52.034;5.090;2024-03-02T15:21:01;5.10;;;1.70;;
69894;SDS011;57172;52.034;5.090;2024-03-02T15:23:28;5.70;;;1.80;;
69894;SDS011;57172;52.034;5.090;2024-03-02T15:25:56;5.17;;;1.60;;
69894;SDS011;57172;52.034;5.090;2024-03-02T15:28:23;5.70;;;1.58;;
69894;SDS011;57172;52.034;5.090;2024-03-02T15:30:50;3.58;;;1.50;;
69894;SDS011;57172;52.034;5.090;2024-03-02T15:33:20;4.97;;;1.42;;
69894;SDS011;57172;52.034;5.090;2024-03-02T15:35:51;3.13;;;1.40;;
69894;SDS011;57172;52.034;5.090;2024-03-02T15:38:18;4.90;;;1.50;;
69894;SDS011;57172;52.034;5.090;2024-03-02T15:40:58;3.40;;;1.60;;
69894;SDS011;57172;52.034;5.090;2024-03-02T15:43:24;3.25;;;1.38;;